sensor_id;sensor_type;location;lat;lon;timestamp;pressure;altitude;pressure_sealevel;temperature;humidity
71948;BME280;63257;55.082;38.772;2023-06-19T00:00:21;100075.00;;;14.75;51.20
71948;BME280;63257;55.082;38.772;2023-06-19T00:02:47;100053.06;;;14.59;51.40
71948;BME280;63257;55.082;38.772;2023-06-19T00:05:13;100073.81;;;14.67;51.15
71948;BME280;63257;55.082;38.772;2023-06-19T00:07:39;100074.03;;;14.64;50.81
71948;BME280;63257;55.082;38.772;2023-06-19T00:10:05;100072.72;;;14.56;51.08
71948;BME280;63257;55.082;38.772;2023-06-19T00:12:32;100073.44;;;14.58;51.58
71948;BME280;63257;55.082;38.772;2023-06-19T00:14:58;100072.91;;;14.53;51.78
71948;BME280;63257;55.082;38.772;2023-06-19T00:17:24;100077.81;;;14.47;51.74
71948;BME280;63257;55.082;38.772;2023-06-19T00:19:52;100059.94;;;14.36;51.24
71948;BME280;63257;55.082;38.772;2023-06-19T00:22:18;100089.38;;;14.46;50.98
71948;BME280;63257;55.082;38.772;2023-06-19T00:24:44;100081.63;;;14.42;51.07
71948;BME280;63257;55.082;38.772;2023-06-19T00:27:09;100085.44;;;14.38;50.69
71948;BME280;63257;55.082;38.772;2023-06-19T00:29:36;100066.91;;;14.24;50.91
71948;BME280;63257;55.082;38.772;2023-06-19T00:32:02;100069.47;;;14.25;51.49
71948;BME280;63257;55.082;38.772;2023-06-19T00:34:29;100057.66;;;14.17;52.15
71948;BME280;63257;55.082;38.772;2023-06-19T00:36:56;100055.00;;;14.17;52.64
71948;BME280;63257;55.082;38.772;2023-06-19T00:39:23;100076.97;;;14.19;51.78
71948;BME280;63257;55.082;38.772;2023-06-19T00:41:51;100066.69;;;14.14;52.29
71948;BME280;63257;55.082;38.772;2023-06-19T00:44:18;100052.63;;;13.99;52.27
71948;BME280;63257;55.082;38.772;2023-06-19T00:46:44;100044.31;;;13.91;52.81
71948;BME280;63257;55.082;38.772;2023-06-19T00:49:11;100065.31;;;13.94;53.39
71948;BME280;63257;55.082;38.772;2023-06-19T00:51:37;100075.09;;;13.94;53.32
71948;BME280;63257;55.082;38.772;2023-06-19T00:54:04;100059.97;;;13.81;53.57
71948;BME280;63257;55.082;38.772;2023-06-19T00:56:31;100073.69;;;13.88;53.45
71948;BME280;63257;55.082;38.772;2023-06-19T00:58:58;100076.34;;;13.88;53.64
71948;BME280;63257;55.082;38.772;2023-06-19T01:01:24;100077.19;;;13.88;53.62
71948;BME280;63257;55.082;38.772;2023-06-19T01:03:51;100083.16;;;13.92;53.05
71948;BME280;63257;55.082;38.772;2023-06-19T01:06:25;100069.66;;;13.82;53.13
71948;BME280;63257;55.082;38.772;2023-06-19T01:09:01;100082.22;;;13.93;53.19
71948;BME280;63257;55.082;38.772;2023-06-19T01:11:32;100063.00;;;13.75;53.20
71948;BME280;63257;55.082;38.772;2023-06-19T01:14:25;100093.22;;;13.87;53.36
71948;BME280;63257;55.082;38.772;2023-06-19T01:16:51;100093.41;;;13.84;53.41
71948;BME280;63257;55.082;38.772;2023-06-19T01:19:19;100092.66;;;13.82;53.43
71948;BME280;63257;55.082;38.772;2023-06-19T01:21:47;100090.88;;;13.82;53.50
71948;BME280;63257;55.082;38.772;2023-06-19T01:24:13;100083.75;;;13.83;53.06
71948;BME280;63257;55.082;38.772;2023-06-19T01:26:40;100066.75;;;13.72;53.80
71948;BME280;63257;55.082;38.772;2023-06-19T01:29:06;100063.44;;;13.69;53.06
71948;BME280;63257;55.082;38.772;2023-06-19T01:34:25;100067.34;;;13.63;53.64
71948;BME280;63257;55.082;38.772;2023-06-19T01:36:53;100066.97;;;13.55;53.66
71948;BME280;63257;55.082;38.772;2023-06-19T01:39:23;100091.19;;;13.63;54.78
71948;BME280;63257;55.082;38.772;2023-06-19T01:41:50;100098.47;;;13.60;54.25
71948;BME280;63257;55.082;38.772;2023-06-19T01:44:17;100095.47;;;13.51;54.31
71948;BME280;63257;55.082;38.772;2023-06-19T01:46:49;100106.06;;;13.51;54.47
71948;BME280;63257;55.082;38.772;2023-06-19T01:49:16;100105.44;;;13.48;54.86
71948;BME280;63257;55.082;38.772;2023-06-19T01:51:42;100100.88;;;13.50;54.81
71948;BME280;63257;55.082;38.772;2023-06-19T01:54:08;100100.03;;;13.49;54.63
71948;BME280;63257;55.082;38.772;2023-06-19T01:56:35;100105.59;;;13.45;54.52
71948;BME280;63257;55.082;38.772;2023-06-19T01:59:01;100107.59;;;13.55;54.31
71948;BME280;63257;55.082;38.772;2023-06-19T02:01:27;100097.38;;;13.49;54.58
71948;BME280;63257;55.082;38.772;2023-06-19T02:03:53;100108.00;;;13.49;54.28
71948;BME280;63257;55.082;38.772;2023-06-19T02:06:19;100107.47;;;13.57;54.31
71948;BME280;63257;55.082;38.772;2023-06-19T02:08:47;100106.75;;;13.55;54.21
71948;BME280;63257;55.082;38.772;2023-06-19T02:11:14;100093.13;;;13.47;54.22
71948;BME280;63257;55.082;38.772;2023-06-19T02:13:40;100079.84;;;13.47;54.47
71948;BME280;63257;55.082;38.772;2023-06-19T02:16:06;100089.78;;;13.57;54.33
71948;BME280;63257;55.082;38.772;2023-06-19T02:18:33;100108.03;;;13.77;53.50
71948;BME280;63257;55.082;38.772;2023-06-19T02:20:59;100104.78;;;13.86;53.20
71948;BME280;63257;55.082;38.772;2023-06-19T02:23:24;100107.31;;;13.87;52.43
71948;BME280;63257;55.082;38.772;2023-06-19T02:25:51;100082.03;;;13.82;52.87
71948;BME280;63257;55.082;38.772;2023-06-19T02:28:17;100076.34;;;13.88;52.12
71948;BME280;63257;55.082;38.772;2023-06-19T02:30:43;100104.75;;;14.00;51.76
71948;BME280;63257;55.082;38.772;2023-06-19T02:33:09;100079.34;;;13.96;51.53
71948;BME280;63257;55.082;38.772;2023-06-19T02:35:35;100080.19;;;13.97;51.05
71948;BME280;63257;55.082;38.772;2023-06-19T02:38:00;100097.75;;;14.12;49.74
71948;BME280;63257;55.082;38.772;2023-06-19T02:40:26;100106.19;;;14.19;49.82
71948;BME280;63257;55.082;38.772;2023-06-19T02:42:53;100093.13;;;14.16;49.14
71948;BME280;63257;55.082;38.772;2023-06-19T02:45:20;100091.13;;;14.19;49.00
71948;BME280;63257;55.082;38.772;2023-06-19T02:47:47;100101.22;;;14.27;49.16
71948;BME280;63257;55.082;38.772;2023-06-19T02:50:13;100113.88;;;14.36;48.72
71948;BME280;63257;55.082;38.772;2023-06-19T02:52:39;100112.84;;;14.39;48.99
71948;BME280;63257;55.082;38.772;2023-06-19T02:55:05;100089.66;;;14.28;48.70
71948;BME280;63257;55.082;38.772;2023-06-19T02:57:33;100099.34;;;14.42;49.07
71948;BME280;63257;55.082;38.772;2023-06-19T02:59:59;100107.66;;;14.50;47.98
71948;BME280;63257;55.082;38.772;2023-06-19T03:02:26;100088.44;;;14.47;48.80
71948;BME280;63257;55.082;38.772;2023-06-19T03:04:52;100097.56;;;14.55;48.98
71948;BME280;63257;55.082;38.772;2023-06-19T03:07:18;100092.47;;;14.52;48.62
71948;BME280;63257;55.082;38.772;2023-06-19T03:09:44;100097.34;;;14.58;48.64
71948;BME280;63257;55.082;38.772;2023-06-19T03:12:10;100078.22;;;14.53;47.59
71948;BME280;63257;55.082;38.772;2023-06-19T03:14:37;100099.22;;;14.71;47.63
71948;BME280;63257;55.082;38.772;2023-06-19T03:17:03;100097.31;;;14.73;47.45
71948;BME280;63257;55.082;38.772;2023-06-19T03:19:31;100083.38;;;14.69;47.75
71948;BME280;63257;55.082;38.772;2023-06-19T03:21:57;100094.78;;;14.84;46.73
71948;BME280;63257;55.082;38.772;2023-06-19T03:24:23;100077.56;;;14.77;47.40
71948;BME280;63257;55.082;38.772;2023-06-19T03:26:52;100097.84;;;14.91;46.96
71948;BME280;63257;55.082;38.772;2023-06-19T03:29:18;100066.59;;;14.82;46.43
71948;BME280;63257;55.082;38.772;2023-06-19T03:32:03;100078.72;;;14.86;45.87
71948;BME280;63257;55.082;38.772;2023-06-19T03:34:31;100070.84;;;14.84;45.70
71948;BME280;63257;55.082;38.772;2023-06-19T03:36:58;100099.22;;;15.09;46.24
71948;BME280;63257;55.082;38.772;2023-06-19T03:39:24;100075.22;;;14.98;45.82
71948;BME280;63257;55.082;38.772;2023-06-19T03:41:53;100096.88;;;15.18;46.08
71948;BME280;63257;55.082;38.772;2023-06-19T03:44:19;100094.97;;;15.20;45.91
71948;BME280;63257;55.082;38.772;2023-06-19T03:46:44;100097.31;;;15.24;46.02
71948;BME280;63257;55.082;38.772;2023-06-19T03:49:12;100093.34;;;15.30;46.66
71948;BME280;63257;55.082;38.772;2023-06-19T03:51:38;100092.94;;;15.36;46.62
71948;BME280;63257;55.082;38.772;2023-06-19T03:54:04;100086.31;;;15.42;46.69
71948;BME280;63257;55.082;38.772;2023-06-19T03:56:30;100070.19;;;15.32;45.90
71948;BME280;63257;55.082;38.772;2023-06-19T03:58:55;100086.22;;;15.43;45.54
71948;BME280;63257;55.082;38.772;2023-06-19T04:01:21;100100.16;;;15.47;45.24
71948;BME280;63257;55.082;38.772;2023-06-19T04:03:48;100076.31;;;15.46;44.40
71948;BME280;63257;55.082;38.772;2023-06-19T04:06:14;100099.16;;;15.61;45.21
71948;BME280;63257;55.082;38.772;2023-06-19T04:08:40;100097.03;;;15.66;44.91
71948;BME280;63257;55.082;38.772;2023-06-19T04:11:06;100095.63;;;15.73;45.47
71948;BME280;63257;55.082;38.772;2023-06-19T04:13:31;100105.06;;;15.77;44.63
71948;BME280;63257;55.082;38.772;2023-06-19T04:15:57;100101.25;;;15.82;44.85
71948;BME280;63257;55.082;38.772;2023-06-19T04:18:23;100087.09;;;15.81;45.25
71948;BME280;63257;55.082;38.772;2023-06-19T04:20:49;100056.66;;;15.72;46.03
71948;BME280;63257;55.082;38.772;2023-06-19T04:23:15;100089.59;;;15.96;45.25
71948;BME280;63257;55.082;38.772;2023-06-19T04:25:41;100096.03;;;16.04;45.24
71948;BME280;63257;55.082;38.772;2023-06-19T04:28:07;100084.69;;;16.02;44.95
71948;BME280;63257;55.082;38.772;2023-06-19T04:30:32;100094.28;;;16.16;44.60
71948;BME280;63257;55.082;38.772;2023-06-19T04:32:59;100108.34;;;16.18;43.24
71948;BME280;63257;55.082;38.772;2023-06-19T04:35:24;100098.31;;;16.22;43.44
71948;BME280;63257;55.082;38.772;2023-06-19T04:37:50;100079.03;;;16.18;43.33
71948;BME280;63257;55.082;38.772;2023-06-19T04:40:16;100097.63;;;16.31;43.44
71948;BME280;63257;55.082;38.772;2023-06-19T04:42:42;100096.69;;;16.32;43.21
71948;BME280;63257;55.082;38.772;2023-06-19T04:45:08;100101.28;;;16.41;43.51
71948;BME280;63257;55.082;38.772;2023-06-19T04:47:35;100088.97;;;16.40;43.08
71948;BME280;63257;55.082;38.772;2023-06-19T04:50:01;100092.50;;;16.52;43.05
71948;BME280;63257;55.082;38.772;2023-06-19T04:52:27;100097.63;;;16.67;43.28
71948;BME280;63257;55.082;38.772;2023-06-19T04:54:52;100095.34;;;16.73;43.70
71948;BME280;63257;55.082;38.772;2023-06-19T04:57:18;100097.41;;;16.81;43.45
71948;BME280;63257;55.082;38.772;2023-06-19T04:59:44;100075.81;;;16.73;42.30
71948;BME280;63257;55.082;38.772;2023-06-19T05:02:11;100098.16;;;16.83;41.94
71948;BME280;63257;55.082;38.772;2023-06-19T05:04:36;100098.56;;;16.90;42.74
71948;BME280;63257;55.082;38.772;2023-06-19T05:07:03;100103.03;;;17.01;42.60
71948;BME280;63257;55.082;38.772;2023-06-19T05:09:28;100093.94;;;17.03;43.12
71948;BME280;63257;55.082;38.772;2023-06-19T05:11:56;100095.78;;;17.14;42.19
71948;BME280;63257;55.082;38.772;2023-06-19T05:14:22;100088.53;;;17.16;41.82
71948;BME280;63257;55.082;38.772;2023-06-19T05:16:48;100092.53;;;17.22;41.82
71948;BME280;63257;55.082;38.772;2023-06-19T05:19:14;100068.03;;;17.17;41.58
71948;BME280;63257;55.082;38.772;2023-06-19T05:21:39;100088.63;;;17.26;41.19
71948;BME280;63257;55.082;38.772;2023-06-19T05:24:05;100068.78;;;17.19;41.11
71948;BME280;63257;55.082;38.772;2023-06-19T05:26:31;100097.84;;;17.22;40.83
71948;BME280;63257;55.082;38.772;2023-06-19T05:28:57;100102.34;;;17.33;41.14
71948;BME280;63257;55.082;38.772;2023-06-19T05:31:23;100092.75;;;17.41;42.11
71948;BME280;63257;55.082;38.772;2023-06-19T05:33:49;100100.03;;;17.51;42.28
71948;BME280;63257;55.082;38.772;2023-06-19T05:36:15;100084.50;;;17.56;41.87
71948;BME280;63257;55.082;38.772;2023-06-19T05:38:40;100088.84;;;17.57;40.35
71948;BME280;63257;55.082;38.772;2023-06-19T05:41:06;100069.22;;;17.46;40.05
71948;BME280;63257;55.082;38.772;2023-06-19T05:43:32;100067.75;;;17.54;40.70
71948;BME280;63257;55.082;38.772;2023-06-19T05:45:58;100080.09;;;17.66;40.60
71948;BME280;63257;55.082;38.772;2023-06-19T05:48:28;100075.72;;;17.65;40.61
71948;BME280;63257;55.082;38.772;2023-06-19T05:50:54;100074.50;;;17.80;39.36
71948;BME280;63257;55.082;38.772;2023-06-19T05:53:20;100089.03;;;17.99;39.91
71948;BME280;63257;55.082;38.772;2023-06-19T05:55:46;100082.00;;;17.98;39.38
71948;BME280;63257;55.082;38.772;2023-06-19T05:58:12;100087.53;;;18.06;38.55
71948;BME280;63257;55.082;38.772;2023-06-19T06:00:38;100084.03;;;18.06;37.32
71948;BME280;63257;55.082;38.772;2023-06-19T06:03:04;100088.75;;;18.13;37.79
71948;BME280;63257;55.082;38.772;2023-06-19T06:05:30;100090.44;;;18.14;38.10
71948;BME280;63257;55.082;38.772;2023-06-19T06:07:56;100068.28;;;18.03;36.67
71948;BME280;63257;55.082;38.772;2023-06-19T06:10:22;100092.69;;;18.30;37.73
71948;BME280;63257;55.082;38.772;2023-06-19T06:12:49;100093.72;;;18.39;37.08
71948;BME280;63257;55.082;38.772;2023-06-19T06:15:15;100090.28;;;18.27;35.70
71948;BME280;63257;55.082;38.772;2023-06-19T06:17:41;100084.94;;;18.27;36.08
71948;BME280;63257;55.082;38.772;2023-06-19T06:20:08;100071.72;;;18.26;36.57
71948;BME280;63257;55.082;38.772;2023-06-19T06:22:42;100095.03;;;18.45;37.33
71948;BME280;63257;55.082;38.772;2023-06-19T06:25:08;100083.44;;;18.35;36.29
71948;BME280;63257;55.082;38.772;2023-06-19T06:27:36;100088.16;;;18.42;37.10
71948;BME280;63257;55.082;38.772;2023-06-19T06:30:02;100087.63;;;18.48;35.80
71948;BME280;63257;55.082;38.772;2023-06-19T06:32:35;100083.72;;;18.53;36.28
71948;BME280;63257;55.082;38.772;2023-06-19T06:35:01;100083.31;;;18.57;36.53
71948;BME280;63257;55.082;38.772;2023-06-19T06:37:30;100067.69;;;18.53;35.16
71948;BME280;63257;55.082;38.772;2023-06-19T06:39:56;100071.13;;;18.43;34.85
71948;BME280;63257;55.082;38.772;2023-06-19T06:42:22;100088.72;;;18.46;34.81
71948;BME280;63257;55.082;38.772;2023-06-19T06:44:48;100089.00;;;18.43;35.06
71948;BME280;63257;55.082;38.772;2023-06-19T06:47:14;100076.09;;;18.48;35.54
71948;BME280;63257;55.082;38.772;2023-06-19T06:49:40;100058.81;;;18.52;35.57
71948;BME280;63257;55.082;38.772;2023-06-19T06:52:06;100068.19;;;18.68;35.58
71948;BME280;63257;55.082;38.772;2023-06-19T06:54:32;100045.97;;;18.67;35.56
71948;BME280;63257;55.082;38.772;2023-06-19T06:56:59;100072.94;;;18.85;36.77
71948;BME280;63257;55.082;38.772;2023-06-19T06:59:26;100056.72;;;18.77;34.98
71948;BME280;63257;55.082;38.772;2023-06-19T07:01:56;100066.31;;;18.79;35.27
71948;BME280;63257;55.082;38.772;2023-06-19T07:04:22;100071.13;;;18.86;35.31
71948;BME280;63257;55.082;38.772;2023-06-19T07:06:49;100041.19;;;18.71;35.64
71948;BME280;63257;55.082;38.772;2023-06-19T07:09:15;100061.22;;;18.97;35.74
71948;BME280;63257;55.082;38.772;2023-06-19T07:11:41;100067.22;;;18.69;35.19
71948;BME280;63257;55.082;38.772;2023-06-19T07:14:07;100069.91;;;18.69;35.07
71948;BME280;63257;55.082;38.772;2023-06-19T07:16:33;100048.19;;;18.62;36.04
71948;BME280;63257;55.082;38.772;2023-06-19T07:18:59;100063.19;;;18.74;35.97
71948;BME280;63257;55.082;38.772;2023-06-19T07:21:27;100043.53;;;18.85;35.95
71948;BME280;63257;55.082;38.772;2023-06-19T07:23:53;100037.28;;;18.75;35.70
71948;BME280;63257;55.082;38.772;2023-06-19T07:26:20;100051.53;;;19.06;35.82
71948;BME280;63257;55.082;38.772;2023-06-19T07:28:46;100054.25;;;19.16;35.14
71948;BME280;63257;55.082;38.772;2023-06-19T07:31:12;100060.81;;;19.02;34.14
71948;BME280;63257;55.082;38.772;2023-06-19T07:33:38;100059.75;;;19.14;35.19
71948;BME280;63257;55.082;38.772;2023-06-19T07:36:04;100034.56;;;19.17;35.72
71948;BME280;63257;55.082;38.772;2023-06-19T07:38:30;100050.50;;;19.28;34.95
71948;BME280;63257;55.082;38.772;2023-06-19T07:40:56;100039.75;;;19.19;35.23
71948;BME280;63257;55.082;38.772;2023-06-19T07:43:22;100052.69;;;19.13;34.29
71948;BME280;63257;55.082;38.772;2023-06-19T07:45:48;100047.25;;;18.94;34.81
71948;BME280;63257;55.082;38.772;2023-06-19T07:48:15;100048.16;;;19.04;34.88
71948;BME280;63257;55.082;38.772;2023-06-19T07:50:42;100029.28;;;18.96;34.08
71948;BME280;63257;55.082;38.772;2023-06-19T07:53:08;100034.69;;;19.15;34.34
71948;BME280;63257;55.082;38.772;2023-06-19T07:55:34;100041.53;;;19.39;33.93
71948;BME280;63257;55.082;38.772;2023-06-19T07:58:03;100045.47;;;19.45;33.69
71948;BME280;63257;55.082;38.772;2023-06-19T08:00:29;100017.50;;;19.08;34.42
71948;BME280;63257;55.082;38.772;2023-06-19T08:02:54;100041.19;;;19.23;34.05
71948;BME280;63257;55.082;38.772;2023-06-19T08:05:20;100040.22;;;19.24;34.00
71948;BME280;63257;55.082;38.772;2023-06-19T08:07:47;100051.53;;;19.37;35.11
71948;BME280;63257;55.082;38.772;2023-06-19T08:10:12;100044.28;;;19.18;33.30
71948;BME280;63257;55.082;38.772;2023-06-19T08:12:38;100039.25;;;19.25;33.91
71948;BME280;63257;55.082;38.772;2023-06-19T08:15:04;100035.34;;;19.39;33.11
71948;BME280;63257;55.082;38.772;2023-06-19T08:17:32;100046.09;;;19.18;32.49
71948;BME280;63257;55.082;38.772;2023-06-19T08:19:58;100024.19;;;19.33;33.34
71948;BME280;63257;55.082;38.772;2023-06-19T08:22:24;100045.63;;;19.43;31.70
71948;BME280;63257;55.082;38.772;2023-06-19T08:24:51;100033.66;;;19.47;32.01
71948;BME280;63257;55.082;38.772;2023-06-19T08:27:17;100031.97;;;19.46;31.98
71948;BME280;63257;55.082;38.772;2023-06-19T08:29:43;100043.53;;;19.47;31.68
71948;BME280;63257;55.082;38.772;2023-06-19T08:32:09;100042.97;;;19.63;31.85
71948;BME280;63257;55.082;38.772;2023-06-19T08:34:35;100028.31;;;19.57;31.01
71948;BME280;63257;55.082;38.772;2023-06-19T08:37:20;100029.03;;;19.59;30.58
71948;BME280;63257;55.082;38.772;2023-06-19T08:39:45;100034.94;;;19.63;31.13
71948;BME280;63257;55.082;38.772;2023-06-19T08:42:11;100025.78;;;19.65;31.80
71948;BME280;63257;55.082;38.772;2023-06-19T08:44:38;100032.22;;;19.94;32.11
71948;BME280;63257;55.082;38.772;2023-06-19T08:47:04;100028.28;;;19.98;30.19
71948;BME280;63257;55.082;38.772;2023-06-19T08:49:33;100035.88;;;19.93;30.52
71948;BME280;63257;55.082;38.772;2023-06-19T08:51:59;100030.72;;;19.60;29.97
71948;BME280;63257;55.082;38.772;2023-06-19T08:54:25;100034.25;;;19.61;29.11
71948;BME280;63257;55.082;38.772;2023-06-19T08:56:51;99990.97;;;19.46;29.29
71948;BME280;63257;55.082;38.772;2023-06-19T08:59:20;100030.31;;;19.65;28.40
71948;BME280;63257;55.082;38.772;2023-06-19T09:01:53;100019.34;;;19.78;27.25
71948;BME280;63257;55.082;38.772;2023-06-19T09:04:26;100014.88;;;19.88;27.67
71948;BME280;63257;55.082;38.772;2023-06-19T09:07:03;100014.88;;;19.98;27.87
71948;BME280;63257;55.082;38.772;2023-06-19T09:09:44;100009.38;;;19.99;24.85
71948;BME280;63257;55.082;38.772;2023-06-19T09:12:29;100003.28;;;19.88;25.74
71948;BME280;63257;55.082;38.772;2023-06-19T09:15:00;99995.97;;;19.99;25.66
71948;BME280;63257;55.082;38.772;2023-06-19T09:17:26;100010.34;;;20.08;27.05
71948;BME280;63257;55.082;38.772;2023-06-19T09:19:56;100009.22;;;20.01;26.42
71948;BME280;63257;55.082;38.772;2023-06-19T09:22:22;100009.09;;;19.93;25.41
71948;BME280;63257;55.082;38.772;2023-06-19T09:24:49;99998.06;;;20.06;26.04
71948;BME280;63257;55.082;38.772;2023-06-19T09:27:17;99982.84;;;20.16;27.38
71948;BME280;63257;55.082;38.772;2023-06-19T09:29:47;100009.75;;;20.34;26.25
71948;BME280;63257;55.082;38.772;2023-06-19T09:32:20;100010.47;;;20.36;25.40
71948;BME280;63257;55.082;38.772;2023-06-19T09:34:48;99996.06;;;20.37;24.84
71948;BME280;63257;55.082;38.772;2023-06-19T09:37:27;100007.66;;;20.38;22.88
71948;BME280;63257;55.082;38.772;2023-06-19T09:39:55;100011.47;;;20.35;24.56
71948;BME280;63257;55.082;38.772;2023-06-19T09:42:29;100003.84;;;20.40;25.81
71948;BME280;63257;55.082;38.772;2023-06-19T09:45:03;99977.47;;;20.26;26.74
71948;BME280;63257;55.082;38.772;2023-06-19T09:47:44;99997.16;;;20.64;26.49
71948;BME280;63257;55.082;38.772;2023-06-19T09:50:15;99992.22;;;20.69;26.00
71948;BME280;63257;55.082;38.772;2023-06-19T09:52:44;99980.22;;;20.54;24.48
71948;BME280;63257;55.082;38.772;2023-06-19T09:55:12;99996.31;;;20.54;24.54
71948;BME280;63257;55.082;38.772;2023-06-19T09:57:39;99986.41;;;20.64;24.84
71948;BME280;63257;55.082;38.772;2023-06-19T10:00:07;99973.44;;;20.59;26.87
71948;BME280;63257;55.082;38.772;2023-06-19T10:02:46;99963.38;;;20.81;27.47
71948;BME280;63257;55.082;38.772;2023-06-19T10:05:12;99963.97;;;20.75;26.98
71948;BME280;63257;55.082;38.772;2023-06-19T10:07:45;99964.34;;;20.80;27.60
71948;BME280;63257;55.082;38.772;2023-06-19T10:10:21;99963.25;;;21.10;27.01
71948;BME280;63257;55.082;38.772;2023-06-19T10:12:48;99965.38;;;21.07;26.42
71948;BME280;63257;55.082;38.772;2023-06-19T10:15:32;99963.47;;;21.17;26.83
71948;BME280;63257;55.082;38.772;2023-06-19T10:18:04;99965.72;;;21.22;25.67
71948;BME280;63257;55.082;38.772;2023-06-19T10:20:32;99972.03;;;21.02;24.77
71948;BME280;63257;55.082;38.772;2023-06-19T10:23:04;99967.97;;;20.98;25.38
71948;BME280;63257;55.082;38.772;2023-06-19T10:25:33;99950.66;;;21.11;25.27
71948;BME280;63257;55.082;38.772;2023-06-19T10:27:59;99962.22;;;21.11;25.26
71948;BME280;63257;55.082;38.772;2023-06-19T10:30:26;99965.00;;;21.19;27.40
71948;BME280;63257;55.082;38.772;2023-06-19T10:32:52;99967.91;;;21.08;26.44
71948;BME280;63257;55.082;38.772;2023-06-19T10:35:19;99943.25;;;20.95;25.99
71948;BME280;63257;55.082;38.772;2023-06-19T10:37:50;99960.34;;;21.22;26.96
71948;BME280;63257;55.082;38.772;2023-06-19T10:40:16;99956.16;;;21.37;26.50
71948;BME280;63257;55.082;38.772;2023-06-19T10:42:43;99933.28;;;21.33;27.06
71948;BME280;63257;55.082;38.772;2023-06-19T10:45:10;99948.13;;;21.09;25.68
71948;BME280;63257;55.082;38.772;2023-06-19T10:47:39;99956.06;;;21.29;26.70
71948;BME280;63257;55.082;38.772;2023-06-19T10:50:15;99934.75;;;21.27;25.95
71948;BME280;63257;55.082;38.772;2023-06-19T10:52:44;99965.00;;;21.19;25.62
71948;BME280;63257;55.082;38.772;2023-06-19T10:55:12;99950.09;;;21.35;26.77
71948;BME280;63257;55.082;38.772;2023-06-19T10:57:38;99938.66;;;21.33;26.24
71948;BME280;63257;55.082;38.772;2023-06-19T11:00:05;99937.72;;;21.70;25.60
71948;BME280;63257;55.082;38.772;2023-06-19T11:02:38;99949.28;;;21.89;24.68
71948;BME280;63257;55.082;38.772;2023-06-19T11:05:06;99947.34;;;21.99;24.33
71948;BME280;63257;55.082;38.772;2023-06-19T11:07:32;99952.97;;;21.88;24.15
71948;BME280;63257;55.082;38.772;2023-06-19T11:09:58;99949.09;;;21.64;24.07
71948;BME280;63257;55.082;38.772;2023-06-19T11:12:24;99930.88;;;21.76;24.36
71948;BME280;63257;55.082;38.772;2023-06-19T11:14:50;99947.91;;;21.84;23.76
71948;BME280;63257;55.082;38.772;2023-06-19T11:17:17;99943.50;;;22.46;23.65
71948;BME280;63257;55.082;38.772;2023-06-19T11:19:52;99937.47;;;22.78;23.55
71948;BME280;63257;55.082;38.772;2023-06-19T11:22:17;99941.38;;;22.92;22.50
71948;BME280;63257;55.082;38.772;2023-06-19T11:24:45;99935.81;;;23.28;22.00
71948;BME280;63257;55.082;38.772;2023-06-19T11:27:23;99929.13;;;23.82;22.12
71948;BME280;63257;55.082;38.772;2023-06-19T11:29:59;99921.72;;;24.33;22.10
71948;BME280;63257;55.082;38.772;2023-06-19T11:32:32;99916.44;;;24.96;21.91
71948;BME280;63257;55.082;38.772;2023-06-19T11:35:05;99913.59;;;25.21;21.04
71948;BME280;63257;55.082;38.772;2023-06-19T11:37:33;99913.22;;;25.01;20.22
71948;BME280;63257;55.082;38.772;2023-06-19T11:40:00;99900.38;;;25.03;20.97
71948;BME280;63257;55.082;38.772;2023-06-19T11:42:28;99922.09;;;25.10;20.39
71948;BME280;63257;55.082;38.772;2023-06-19T11:45:02;99912.84;;;24.72;20.37
71948;BME280;63257;55.082;38.772;2023-06-19T11:47:33;99893.91;;;24.81;20.52
71948;BME280;63257;55.082;38.772;2023-06-19T11:49:59;99904.34;;;25.15;20.15
71948;BME280;63257;55.082;38.772;2023-06-19T11:52:26;99926.47;;;25.19;19.71
71948;BME280;63257;55.082;38.772;2023-06-19T11:54:52;99914.00;;;24.78;21.17
71948;BME280;63257;55.082;38.772;2023-06-19T11:57:18;99920.25;;;25.42;20.23
71948;BME280;63257;55.082;38.772;2023-06-19T11:59:43;99908.88;;;25.54;19.53
71948;BME280;63257;55.082;38.772;2023-06-19T12:02:09;99900.72;;;25.00;20.47
71948;BME280;63257;55.082;38.772;2023-06-19T12:04:35;99900.41;;;24.95;20.76
71948;BME280;63257;55.082;38.772;2023-06-19T12:07:01;99888.00;;;24.85;20.30
71948;BME280;63257;55.082;38.772;2023-06-19T12:09:30;99893.03;;;25.51;20.23
71948;BME280;63257;55.082;38.772;2023-06-19T12:11:58;99903.84;;;25.89;19.95
71948;BME280;63257;55.082;38.772;2023-06-19T12:14:23;99859.81;;;26.19;19.85
71948;BME280;63257;55.082;38.772;2023-06-19T12:16:50;99874.19;;;26.64;19.62
71948;BME280;63257;55.082;38.772;2023-06-19T12:19:16;99891.50;;;25.72;20.36
71948;BME280;63257;55.082;38.772;2023-06-19T12:21:42;99881.50;;;25.96;20.36
71948;BME280;63257;55.082;38.772;2023-06-19T12:24:08;99892.91;;;25.68;20.47
71948;BME280;63257;55.082;38.772;2023-06-19T12:26:35;99879.91;;;26.01;19.97
71948;BME280;63257;55.082;38.772;2023-06-19T12:29:06;99878.78;;;25.96;19.43
71948;BME280;63257;55.082;38.772;2023-06-19T12:31:34;99868.56;;;26.06;19.60
71948;BME280;63257;55.082;38.772;2023-06-19T12:34:02;99866.09;;;25.96;19.37
71948;BME280;63257;55.082;38.772;2023-06-19T12:36:28;99864.09;;;26.28;19.37
71948;BME280;63257;55.082;38.772;2023-06-19T12:38:56;99871.72;;;26.84;19.19
71948;BME280;63257;55.082;38.772;2023-06-19T12:41:22;99879.22;;;26.52;18.10
71948;BME280;63257;55.082;38.772;2023-06-19T12:43:48;99873.16;;;26.35;18.38
71948;BME280;63257;55.082;38.772;2023-06-19T12:46:14;99866.09;;;27.01;17.97